Time;durP1;ratioP1;P1;durP2;ratioP2;P2;SDS_P1;SDS_P2;PMS_P1;PMS_P2;Temp;Humidity;BMP_temperature;BMP_pressure;BME280_temperature;BME280_humidity;BME280_pressure;Samples;Min_cycle;Max_cycle;Signal;HPM_P1;HPM_P2
2021/10/16 00:02:12;;;;;;;;;;;;;;;19.02;75.27;100675.50;5056093;28;1484;-40
2021/10/16 00:04:40;;;;;;;;;;;;;;;18.99;75.04;100658.84;5051047;28;1725;-40
2021/10/16 00:07:09;;;;;;;;;;;;;;;18.98;75.33;100667.84;5053291;28;2251;-41
2021/10/16 00:09:37;;;;;;;;;;;;;;;18.99;75.32;100667.72;5056189;28;2252;-40
2021/10/16 00:12:05;;;;;;;;;;;;;;;18.95;75.12;100646.69;5056118;28;1910;-40
2021/10/16 00:14:32;;;;;;;;;;;;;;;18.92;74.22;100646.97;5055903;28;1619;-40
2021/10/16 00:17:02;;;;;;;;;;;;;;;18.94;75.27;100631.59;5056524;28;1911;-41
2021/10/16 00:19:38;;;;;;;;;;;;;;;18.91;74.80;100629.22;5044169;28;1799;-40
2021/10/16 00:22:08;;;;;;;;;;;;;;;18.91;75.00;100646.13;5051876;28;1772;-40
2021/10/16 00:24:36;;;;;;;;;;;;;;;18.90;75.47;100639.09;5053310;28;2308;-40
2021/10/16 00:27:05;;;;;;;;;;;;;;;18.87;75.05;100634.81;5056089;28;2107;-40
2021/10/16 00:29:34;;;;;;;;;;;;;;;18.89;75.59;100629.34;5055296;28;1739;-40
2021/10/16 00:32:04;;;;;;;;;;;;;;;18.88;74.43;100609.75;5056156;28;1909;-41
2021/10/16 00:34:31;;;;;;;;;;;;;;;18.89;74.57;100605.22;5053248;28;2058;-40
2021/10/16 00:36:58;;;;;;;;;;;;;;;18.90;74.51;100606.94;5055438;28;1851;-40
2021/10/16 00:39:27;;;;;;;;;;;;;;;18.92;75.52;100606.78;5055766;28;1955;-40
2021/10/16 00:41:56;;;;;;;;;;;;;;;18.90;74.45;100606.94;5056072;28;2456;-40
2021/10/16 00:44:34;;;;;;;;;;;;;;;18.90;74.46;100625.69;5055370;28;1619;-40
2021/10/16 00:47:03;;;;;;;;;;;;;;;18.89;74.91;100621.31;5056228;28;1627;-40
2021/10/16 00:49:30;;;;;;;;;;;;;;;18.86;74.45;100621.56;5054283;28;1597;-40
2021/10/16 00:52:00;;;;;;;;;;;;;;;18.88;75.16;100622.31;5050489;28;1977;-40
2021/10/16 00:54:30;;;;;;;;;;;;;;;18.86;74.79;100616.19;5055104;28;1664;-41
2021/10/16 00:57:01;;;;;;;;;;;;;;;18.84;75.58;100604.78;5055168;28;1883;-40
2021/10/16 00:59:30;;;;;;;;;;;;;;;18.81;74.76;100623.81;5054894;28;1593;-40
2021/10/16 01:01:58;;;;;;;;;;;;;;;18.81;75.85;100603.22;5055701;28;1652;-40
2021/10/16 01:04:26;;;;;;;;;;;;;;;18.81;75.54;100602.41;5054611;28;2346;-40
2021/10/16 01:06:55;;;;;;;;;;;;;;;18.82;75.37;100617.47;5054825;28;1559;-40
2021/10/16 01:09:22;;;;;;;;;;;;;;;18.81;75.45;100613.94;5054614;28;1580;-40
2021/10/16 01:11:53;;;;;;;;;;;;;;;18.80;75.73;100614.09;5054742;28;1910;-40
2021/10/16 01:14:23;;;;;;;;;;;;;;;18.81;74.59;100603.22;5049845;28;1692;-40
2021/10/16 01:16:53;;;;;;;;;;;;;;;18.81;74.64;100608.59;5055395;28;1720;-40
2021/10/16 01:19:32;;;;;;;;;;;;;;;18.82;75.42;100606.75;5054059;28;2170;-40
2021/10/16 01:22:06;;;;;;;;;;;;;;;18.77;75.17;100596.44;5054269;28;1642;-41
2021/10/16 01:24:38;;;;;;;;;;;;;;;18.76;75.51;100586.72;5053258;28;1514;-40
2021/10/16 01:27:07;;;;;;;;;;;;;;;18.76;74.90;100594.75;5044883;28;1756;-40
2021/10/16 01:29:37;;;;;;;;;;;;;;;18.76;75.57;100573.31;5054395;28;1704;-40
2021/10/16 01:32:07;;;;;;;;;;;;;;;18.76;75.51;100589.38;5054937;28;1979;-41
2021/10/16 01:34:34;;;;;;;;;;;;;;;18.74;75.71;100595.84;5054821;28;1897;-40
2021/10/16 01:37:04;;;;;;;;;;;;;;;18.79;74.73;100582.91;5054641;28;1825;-41
2021/10/16 01:39:34;;;;;;;;;;;;;;;18.77;74.94;100588.38;5054090;28;1583;-41
2021/10/16 01:42:00;;;;;;;;;;;;;;;18.77;74.77;100584.88;5054657;28;1554;-41
2021/10/16 01:44:30;;;;;;;;;;;;;;;18.76;75.04;100586.72;5054804;28;1443;-40
2021/10/16 01:46:58;;;;;;;;;;;;;;;18.75;75.79;100571.59;5053222;28;1976;-40
2021/10/16 01:52:19;;;;;;;;;;;;;;;18.77;75.05;100575.00;5051134;28;2296;-40
2021/10/16 01:54:45;;;;;;;;;;;;;;;18.79;76.00;100583.78;5051435;28;1943;-40
2021/10/16 01:57:15;;;;;;;;;;;;;;;18.77;75.50;100569.63;5053752;28;2265;-41
2021/10/16 01:59:44;;;;;;;;;;;;;;;18.79;75.36;100577.53;5049918;28;1656;-40
2021/10/16 02:02:11;;;;;;;;;;;;;;;18.75;75.28;100566.25;5036892;22;3603;-55
2021/10/16 02:04:38;;;;;;;;;;;;;;;18.74;74.97;100579.78;5029692;28;1429;-55
2021/10/16 02:07:04;;;;;;;;;;;;;;;18.75;75.47;100568.94;5033492;28;1369;-55
2021/10/16 02:09:32;;;;;;;;;;;;;;;18.76;75.59;100572.44;5032636;28;1484;-55
2021/10/16 02:11:59;;;;;;;;;;;;;;;18.72;76.08;100571.03;5033057;28;1906;-55
2021/10/16 02:14:25;;;;;;;;;;;;;;;18.68;75.03;100565.97;5030382;28;1612;-55
2021/10/16 02:16:52;;;;;;;;;;;;;;;18.66;74.90;100557.22;5031516;28;1244;-55
2021/10/16 02:19:18;;;;;;;;;;;;;;;18.72;74.85;100560.31;5032656;28;1487;-55
2021/10/16 02:21:45;;;;;;;;;;;;;;;18.69;74.66;100577.53;5032836;28;1527;-55
2021/10/16 02:24:11;;;;;;;;;;;;;;;18.69;74.71;100570.31;5032319;28;1484;-55
2021/10/16 02:26:39;;;;;;;;;;;;;;;18.72;75.84;100587.09;5032677;28;1443;-55
2021/10/16 02:29:06;;;;;;;;;;;;;;;18.67;75.72;100558.91;5033227;28;1584;-55
2021/10/16 02:31:32;;;;;;;;;;;;;;;18.70;74.80;100573.84;5028238;28;1320;-55
2021/10/16 02:33:59;;;;;;;;;;;;;;;18.71;74.56;100569.34;5024320;28;1902;-55
2021/10/16 02:36:25;;;;;;;;;;;;;;;19.18;74.41;100572.22;5027375;28;1866;-55
2021/10/16 02:38:52;;;;;;;;;;;;;;;19.22;74.25;100576.34;5027823;28;1450;-55
2021/10/16 02:41:18;;;;;;;;;;;;;;;19.30;73.10;100578.28;5032890;28;1421;-55
2021/10/16 02:43:46;;;;;;;;;;;;;;;19.27;73.95;100571.38;5032512;28;1865;-55
2021/10/16 02:46:13;;;;;;;;;;;;;;;19.21;74.09;100563.91;5032438;28;1596;-55
2021/10/16 02:48:40;;;;;;;;;;;;;;;19.25;74.35;100576.03;5025407;28;1490;-55
2021/10/16 02:51:06;;;;;;;;;;;;;;;19.25;74.17;100558.13;5031091;28;1404;-55
2021/10/16 02:53:35;;;;;;;;;;;;;;;19.34;73.78;100567.16;5031061;28;1906;-55
2021/10/16 02:56:01;;;;;;;;;;;;;;;19.34;73.16;100548.38;5031385;28;1371;-55
2021/10/16 02:58:28;;;;;;;;;;;;;;;19.35;73.08;100558.09;5032202;28;1566;-55
2021/10/16 03:00:56;;;;;;;;;;;;;;;19.34;74.29;100559.13;5033123;28;1062;-55
2021/10/16 03:03:22;;;;;;;;;;;;;;;19.39;73.38;100570.25;5030172;28;1979;-55
2021/10/16 03:05:49;;;;;;;;;;;;;;;19.33;73.72;100572.66;5030101;28;1334;-55
2021/10/16 03:08:15;;;;;;;;;;;;;;;19.36;73.68;100559.81;5031293;28;1405;-55
2021/10/16 03:10:43;;;;;;;;;;;;;;;19.37;74.22;100553.44;5031865;28;1507;-55
2021/10/16 03:13:09;;;;;;;;;;;;;;;19.38;73.98;100562.38;5032466;28;1906;-55
2021/10/16 03:15:36;;;;;;;;;;;;;;;19.41;73.78;100557.53;5033052;28;978;-55
2021/10/16 03:18:04;;;;;;;;;;;;;;;19.41;73.95;100560.22;5030916;28;1519;-55
2021/10/16 03:20:30;;;;;;;;;;;;;;;19.44;73.09;100562.63;5027568;28;1508;-55
2021/10/16 03:22:57;;;;;;;;;;;;;;;19.43;74.03;100560.91;5030678;28;1448;-55
2021/10/16 03:25:24;;;;;;;;;;;;;;;19.47;73.02;100570.38;5032919;28;1019;-55
2021/10/16 03:27:50;;;;;;;;;;;;;;;19.45;73.71;100564.31;5032531;28;1476;-55
2021/10/16 03:30:17;;;;;;;;;;;;;;;19.51;73.04;100556.69;5032231;28;1669;-55
2021/10/16 03:32:44;;;;;;;;;;;;;;;19.50;72.77;100565.72;5026687;28;1910;-55
2021/10/16 03:35:12;;;;;;;;;;;;;;;19.54;73.46;100557.25;5025303;28;1236;-55
2021/10/16 03:37:38;;;;;;;;;;;;;;;19.52;73.56;100571.78;5031520;28;1476;-55
2021/10/16 03:40:05;;;;;;;;;;;;;;;19.51;73.59;100556.69;5032106;28;1421;-55
2021/10/16 03:42:32;;;;;;;;;;;;;;;19.52;72.69;100571.78;5032100;28;1531;-55
2021/10/16 03:45:01;;;;;;;;;;;;;;;19.54;72.75;100572.50;5019108;28;1613;-55
2021/10/16 03:47:27;;;;;;;;;;;;;;;19.51;73.91;100562.88;5028047;28;1523;-55
2021/10/16 03:49:54;;;;;;;;;;;;;;;19.46;72.69;100566.00;5028852;28;1293;-55
2021/10/16 03:52:22;;;;;;;;;;;;;;;19.45;73.38;100568.81;5030557;28;1902;-55
2021/10/16 03:54:49;;;;;;;;;;;;;;;19.47;73.54;100564.16;5030477;28;1523;-55
2021/10/16 03:57:15;;;;;;;;;;;;;;;19.63;73.05;100566.25;5031575;28;1428;-55
2021/10/16 03:59:43;;;;;;;;;;;;;;;19.53;72.64;100562.75;5031169;28;1565;-57
2021/10/16 04:02:10;;;;;;;;;;;;;;;19.42;74.45;100550.38;5027784;28;1403;-56
2021/10/16 04:04:36;;;;;;;;;;;;;;;19.42;72.67;100559.25;5030132;28;1467;-55
2021/10/16 04:07:03;;;;;;;;;;;;;;;19.41;74.30;100557.53;5031402;28;1601;-55
2021/10/16 04:09:31;;;;;;;;;;;;;;;19.42;72.67;100569.97;5030788;28;1562;-56
2021/10/16 04:11:58;;;;;;;;;;;;;;;19.43;73.86;100581.53;5031118;28;1479;-56
2021/10/16 04:14:24;;;;;;;;;;;;;;;19.26;73.61;100572.38;5031143;28;1973;-57
2021/10/16 04:16:51;;;;;;;;;;;;;;;19.20;74.50;100555.03;5030737;28;1241;-56
2021/10/16 04:19:17;;;;;;;;;;;;;;;19.23;74.81;100578.03;5025999;28;1844;-56
2021/10/16 04:21:44;;;;;;;;;;;;;;;18.90;70.45;100557.84;5025529;28;1409;-56
2021/10/16 04:24:11;;;;;;;;;;;;;;;18.90;71.70;100561.38;5031895;28;1581;-57
2021/10/16 04:26:39;;;;;;;;;;;;;;;18.90;72.32;100553.34;5031401;28;1628;-56
2021/10/16 04:29:05;;;;;;;;;;;;;;;18.99;72.60;100560.53;5030314;28;1535;-57
2021/10/16 04:31:32;;;;;;;;;;;;;;;19.01;73.12;100563.91;5031865;28;1319;-56
2021/10/16 04:33:59;;;;;;;;;;;;;;;19.11;72.39;100565.75;5024571;28;1907;-57
2021/10/16 04:36:26;;;;;;;;;;;;;;;19.13;72.95;100551.22;5029773;28;1508;-56
2021/10/16 04:38:52;;;;;;;;;;;;;;;19.06;72.67;100555.47;5031298;28;1444;-56
2021/10/16 04:41:19;;;;;;;;;;;;;;;19.19;73.09;100571.25;5029561;28;1427;-55
2021/10/16 04:43:47;;;;;;;;;;;;;;;19.04;72.86;100539.53;5031142;28;1499;-58
2021/10/16 04:46:13;;;;;;;;;;;;;;;19.06;73.80;100568.88;5032463;28;977;-54
2021/10/16 04:48:42;;;;;;;;;;;;;;;19.02;72.88;100546.84;5030183;28;1429;-55
2021/10/16 04:51:09;;;;;;;;;;;;;;;18.65;67.90;100566.22;5035073;28;1642;-58
2021/10/16 04:53:35;;;;;;;;;;;;;;;18.67;71.77;100558.91;5033029;28;1971;-56
2021/10/16 04:56:02;;;;;;;;;;;;;;;18.73;71.85;100557.50;5032019;28;1428;-57
2021/10/16 04:58:29;;;;;;;;;;;;;;;18.78;71.52;100559.75;5032627;28;1597;-56
2021/10/16 05:00:57;;;;;;;;;;;;;;;18.79;71.76;100553.44;5032745;28;1493;-56
2021/10/16 05:03:23;;;;;;;;;;;;;;;18.78;71.95;100559.75;5033508;28;1731;-56
2021/10/16 05:05:50;;;;;;;;;;;;;;;18.79;71.97;100570.38;5034079;28;1557;-56
2021/10/16 05:08:17;;;;;;;;;;;;;;;18.76;73.01;100572.44;5034180;28;1468;-56
2021/10/16 05:10:43;;;;;;;;;;;;;;;18.76;72.77;100573.31;5033347;28;1503;-56
2021/10/16 05:13:10;;;;;;;;;;;;;;;18.74;73.24;100579.78;5034271;28;1977;-55
2021/10/16 05:15:36;;;;;;;;;;;;;;;18.76;73.06;100585.84;5033987;28;1577;-56
2021/10/16 05:18:04;;;;;;;;;;;;;;;18.71;73.29;100580.06;5034662;28;1696;-56
2021/10/16 05:20:31;;;;;;;;;;;;;;;18.68;72.74;100587.41;5034233;28;1580;-56
2021/10/16 05:22:58;;;;;;;;;;;;;;;18.69;73.44;100589.06;5034379;28;1459;-56
2021/10/16 05:25:24;;;;;;;;;;;;;;;18.71;73.10;100593.47;5034145;28;1644;-56
2021/10/16 05:27:51;;;;;;;;;;;;;;;18.66;72.73;100584.00;5034103;28;1060;-56
2021/10/16 05:30:18;;;;;;;;;;;;;;;18.70;72.62;100597.94;5034430;28;1708;-56
2021/10/16 05:32:45;;;;;;;;;;;;;;;18.66;73.34;100597.41;5034320;28;1981;-56
2021/10/16 05:35:12;;;;;;;;;;;;;;;18.67;73.23;100601.75;5035119;28;1031;-56
2021/10/16 05:37:39;;;;;;;;;;;;;;;18.66;73.05;100609.91;5024172;28;1708;-57
2021/10/16 05:40:06;;;;;;;;;;;;;;;18.64;73.71;100604.72;5034206;28;1577;-56
2021/10/16 05:42:33;;;;;;;;;;;;;;;18.66;73.31;100613.47;5033620;28;1472;-56
2021/10/16 05:45:01;;;;;;;;;;;;;;;18.65;72.55;100618.97;5034004;28;1464;-55
2021/10/16 05:47:28;;;;;;;;;;;;;;;18.65;72.97;100627.84;5033936;28;1597;-56
2021/10/16 05:49:55;;;;;;;;;;;;;;;18.64;73.60;100617.25;5034848;28;1060;-56
2021/10/16 05:52:23;;;;;;;;;;;;;;;18.64;72.74;100606.53;5033994;28;1700;-56
2021/10/16 05:54:49;;;;;;;;;;;;;;;18.65;72.41;100635.88;5033675;28;2004;-56
2021/10/16 05:57:16;;;;;;;;;;;;;;;18.60;72.76;100626.53;5033415;28;1577;-56
2021/10/16 05:59:42;;;;;;;;;;;;;;;18.61;72.77;100636.28;5033812;28;1526;-56
2021/10/16 06:02:09;;;;;;;;;;;;;;;18.59;73.11;100631.06;5021566;28;1549;-56
2021/10/16 06:04:35;;;;;;;;;;;;;;;18.60;72.71;100643.47;5031429;28;1517;-56
2021/10/16 06:07:02;;;;;;;;;;;;;;;18.56;73.19;100627.81;5033690;28;1696;-55
2021/10/16 06:09:30;;;;;;;;;;;;;;;18.57;72.91;100635.72;5033199;28;1408;-56
2021/10/16 06:11:57;;;;;;;;;;;;;;;18.53;72.83;100626.25;5033157;28;1522;-56
2021/10/16 06:14:23;;;;;;;;;;;;;;;18.56;73.28;100635.84;5033005;28;1898;-56
2021/10/16 06:16:50;;;;;;;;;;;;;;;18.56;72.79;100644.75;5034398;28;1152;-56
2021/10/16 06:19:17;;;;;;;;;;;;;;;18.56;73.07;100652.78;5033160;28;1708;-56
2021/10/16 06:21:43;;;;;;;;;;;;;;;18.55;73.31;100651.06;5032949;28;1444;-56
2021/10/16 06:24:10;;;;;;;;;;;;;;;18.55;72.51;100645.72;5033470;28;1584;-56
2021/10/16 06:26:38;;;;;;;;;;;;;;;18.56;72.67;100658.13;5033384;28;1522;-56
2021/10/16 06:29:04;;;;;;;;;;;;;;;18.51;73.20;100643.44;5032829;28;1491;-55
2021/10/16 06:31:31;;;;;;;;;;;;;;;18.52;73.24;100647.81;5033483;28;1541;-56
2021/10/16 06:33:58;;;;;;;;;;;;;;;18.51;72.68;100660.34;5032706;28;1976;-56
2021/10/16 06:36:24;;;;;;;;;;;;;;;18.52;72.89;100664.72;5033222;28;1652;-56
2021/10/16 06:38:51;;;;;;;;;;;;;;;18.53;73.55;100655.72;5032799;28;1581;-56
2021/10/16 06:41:17;;;;;;;;;;;;;;;18.52;72.66;100671.91;5032852;28;1618;-56
2021/10/16 06:43:46;;;;;;;;;;;;;;;18.50;72.77;100674.72;5032731;28;1521;-56
2021/10/16 06:46:12;;;;;;;;;;;;;;;18.52;73.04;100667.38;5033833;28;1060;-56
2021/10/16 06:48:39;;;;;;;;;;;;;;;18.51;72.43;100671.06;5032997;28;1716;-56
2021/10/16 06:51:05;;;;;;;;;;;;;;;18.53;72.71;100673.63;5032866;28;1632;-56
2021/10/16 06:53:32;;;;;;;;;;;;;;;18.51;72.61;100665.72;5032723;28;1906;-55
2021/10/16 06:55:59;;;;;;;;;;;;;;;18.49;73.50;100651.59;5032808;28;1569;-56
2021/10/16 06:58:25;;;;;;;;;;;;;;;18.50;73.00;100672.03;5032440;28;1569;-56
2021/10/16 07:00:53;;;;;;;;;;;;;;;18.51;72.99;100660.34;5031215;28;1443;-55
2021/10/16 07:03:20;;;;;;;;;;;;;;;18.49;72.86;100663.16;5020049;28;1599;-56
2021/10/16 07:05:46;;;;;;;;;;;;;;;18.45;72.59;100651.03;5032606;28;1428;-56
2021/10/16 07:08:13;;;;;;;;;;;;;;;18.46;73.54;100658.09;5032538;28;1452;-56
2021/10/16 07:10:39;;;;;;;;;;;;;;;18.45;73.40;100671.59;5031666;28;1445;-56
2021/10/16 07:13:08;;;;;;;;;;;;;;;18.46;73.31;100665.25;5030801;28;1628;-56
2021/10/16 07:15:35;;;;;;;;;;;;;;;18.46;72.76;100678.63;5032153;28;1045;-56
2021/10/16 07:18:03;;;;;;;;;;;;;;;18.45;73.43;100663.56;5031913;28;1665;-56
2021/10/16 07:20:29;;;;;;;;;;;;;;;18.45;73.56;100660.91;5032398;28;1573;-56
2021/10/16 07:22:56;;;;;;;;;;;;;;;18.46;73.46;100667.94;5032382;28;1616;-56
2021/10/16 07:25:22;;;;;;;;;;;;;;;18.44;72.61;100677.94;5033257;28;1041;-56
2021/10/16 07:27:51;;;;;;;;;;;;;;;18.42;72.78;100670.06;5032320;28;1563;-55
2021/10/16 07:30:18;;;;;;;;;;;;;;;18.43;73.64;100682.44;5032256;28;1480;-56
2021/10/16 07:32:46;;;;;;;;;;;;;;;18.47;72.90;100677.66;5031871;28;1532;-55
2021/10/16 07:35:14;;;;;;;;;;;;;;;18.42;73.64;100670.06;5032153;28;1973;-56
2021/10/16 07:37:40;;;;;;;;;;;;;;;18.45;72.87;100685.84;5032472;28;1627;-56
2021/10/16 07:40:07;;;;;;;;;;;;;;;18.45;72.54;100668.94;5032182;28;1512;-56
2021/10/16 07:42:34;;;;;;;;;;;;;;;18.44;73.13;100669.91;5031717;28;1708;-56
2021/10/16 07:45:00;;;;;;;;;;;;;;;18.45;72.52;100685.00;5031788;28;1795;-56
2021/10/16 07:47:27;;;;;;;;;;;;;;;18.45;73.35;100660.91;5032503;28;1608;-56
2021/10/16 07:49:54;;;;;;;;;;;;;;;18.44;73.26;100681.47;5032652;28;1061;-56
2021/10/16 07:52:22;;;;;;;;;;;;;;;18.41;72.37;100664.81;5031724;28;1448;-56
2021/10/16 07:54:49;;;;;;;;;;;;;;;18.45;72.87;100680.47;5031668;28;1914;-56
2021/10/16 07:57:15;;;;;;;;;;;;;;;18.41;72.34;100673.69;5031726;28;1620;-56
2021/10/16 07:59:42;;;;;;;;;;;;;;;18.43;72.59;100678.91;5031959;28;1680;-56
2021/10/16 08:02:09;;;;;;;;;;;;;;;18.40;73.49;100684.53;5032515;28;1305;-56
2021/10/16 08:04:35;;;;;;;;;;;;;;;18.42;72.67;100686.13;5031769;28;1585;-56
2021/10/16 08:07:02;;;;;;;;;;;;;;;18.44;73.26;100689.50;5029162;28;1514;-56
2021/10/16 08:09:30;;;;;;;;;;;;;;;18.42;72.41;100695.94;5031640;28;1524;-56
2021/10/16 08:11:57;;;;;;;;;;;;;;;18.38;73.01;100689.16;5031941;28;1687;-57
2021/10/16 08:14:23;;;;;;;;;;;;;;;18.42;72.84;100694.16;5031676;28;2030;-56
2021/10/16 08:16:50;;;;;;;;;;;;;;;18.39;72.50;100688.22;5032740;28;1135;-55
2021/10/16 08:19:16;;;;;;;;;;;;;;;18.40;73.40;100705.94;5031600;28;1723;-56
2021/10/16 08:21:43;;;;;;;;;;;;;;;18.39;72.51;100710.47;5031415;28;1484;-56
2021/10/16 08:24:09;;;;;;;;;;;;;;;18.35;73.12;100690.28;5034548;28;1585;-56
2021/10/16 08:26:37;;;;;;;;;;;;;;;18.38;72.47;100697.19;5035497;28;1388;-56
2021/10/16 08:29:04;;;;;;;;;;;;;;;18.36;72.54;100707.19;5035289;28;1644;-56
2021/10/16 08:31:31;;;;;;;;;;;;;;;18.37;72.52;100711.59;5036125;28;1043;-56
2021/10/16 08:33:58;;;;;;;;;;;;;;;18.34;72.49;100698.44;5035037;28;1969;-56
2021/10/16 08:36:24;;;;;;;;;;;;;;;18.36;72.89;100704.53;5034568;28;1568;-56
2021/10/16 08:38:52;;;;;;;;;;;;;;;18.38;72.38;100707.91;5035345;28;1561;-56
2021/10/16 08:41:19;;;;;;;;;;;;;;;18.40;72.79;100712.19;5035327;28;1652;-56
2021/10/16 08:43:47;;;;;;;;;;;;;;;18.36;72.42;100704.53;5034998;28;1585;-56
2021/10/16 08:46:14;;;;;;;;;;;;;;;18.36;72.58;100701.84;5035870;28;1082;-56
2021/10/16 08:48:41;;;;;;;;;;;;;;;18.37;72.90;100716.94;5034828;28;1473;-56
2021/10/16 08:51:08;;;;;;;;;;;;;;;18.40;72.35;100738.94;5034995;28;1847;-56
2021/10/16 08:53:34;;;;;;;;;;;;;;;18.37;72.40;100724.97;5026519;28;1569;-56
2021/10/16 08:56:04;;;;;;;;;;;;;;;18.38;72.29;100721.28;5034666;28;1985;-56
2021/10/16 08:58:31;;;;;;;;;;;;;;;18.35;72.56;100721.59;5035040;28;1565;-55
2021/10/16 09:01:00;;;;;;;;;;;;;;;18.34;72.83;100722.53;5035592;28;1243;-56
2021/10/16 09:03:28;;;;;;;;;;;;;;;18.36;72.51;100724.09;5034232;28;1523;-56
2021/10/16 09:06:12;;;;;;;;;;;;;;;18.36;73.14;100736.66;5024384;28;1635;-56
2021/10/16 09:08:44;;;;;;;;;;;;;;;18.32;72.66;100729.88;5026841;28;1641;-56
2021/10/16 09:11:12;;;;;;;;;;;;;;;18.34;72.99;100725.22;5034652;28;1524;-56
2021/10/16 09:13:45;;;;;;;;;;;;;;;18.34;72.88;100727.91;5034587;28;1432;-56
2021/10/16 09:16:26;;;;;;;;;;;;;;;18.31;72.77;100726.34;5035047;28;2019;-56
2021/10/16 09:18:54;;;;;;;;;;;;;;;18.22;72.27;100709.25;5034611;28;1866;-56
2021/10/16 09:21:22;;;;;;;;;;;;;;;18.32;72.79;100729.88;5034224;28;1501;-56
2021/10/16 09:23:58;;;;;;;;;;;;;;;18.34;72.35;100734.09;5034566;28;1565;-55
2021/10/16 09:26:25;;;;;;;;;;;;;;;18.31;72.81;100734.38;5034539;28;1659;-56
2021/10/16 09:28:55;;;;;;;;;;;;;;;18.29;72.26;100728.31;5034467;28;1509;-56
2021/10/16 09:31:21;;;;;;;;;;;;;;;18.32;72.27;100740.56;5035319;28;1064;-56
2021/10/16 09:33:49;;;;;;;;;;;;;;;18.29;72.98;100730.97;5034232;28;1736;-56
2021/10/16 09:36:25;;;;;;;;;;;;;;;18.31;72.54;100729.03;5029193;28;1969;-56
2021/10/16 09:38:52;;;;;;;;;;;;;;;18.29;73.04;100742.53;5035401;28;1525;-56
2021/10/16 09:41:22;;;;;;;;;;;;;;;18.32;72.37;100740.56;5035126;28;1425;-56
2021/10/16 09:43:49;;;;;;;;;;;;;;;18.28;72.39;100737.31;5034872;28;1620;-56
2021/10/16 09:46:16;;;;;;;;;;;;;;;18.29;72.23;100742.53;5035646;28;1562;-56
2021/10/16 09:48:45;;;;;;;;;;;;;;;18.32;72.16;100745.91;5035134;28;1763;-55
2021/10/16 09:51:14;;;;;;;;;;;;;;;18.33;72.43;100734.25;5034970;28;1581;-56
2021/10/16 09:53:42;;;;;;;;;;;;;;;18.29;72.38;100742.53;5034594;28;1585;-55
2021/10/16 09:56:10;;;;;;;;;;;;;;;18.31;73.14;100738.88;5034983;28;1914;-56
2021/10/16 09:58:37;;;;;;;;;;;;;;;18.35;72.76;100745.69;5035404;28;1012;-56
2021/10/16 10:01:04;;;;;;;;;;;;;;;18.29;72.60;100744.38;5034595;28;1652;-56
2021/10/16 10:03:32;;;;;;;;;;;;;;;18.30;73.20;100743.38;5034737;28;1636;-56
2021/10/16 10:05:59;;;;;;;;;;;;;;;18.28;72.68;100745.34;5033700;28;1616;-55
2021/10/16 10:08:27;;;;;;;;;;;;;;;18.30;72.60;100743.38;5034432;28;1413;-56
2021/10/16 10:10:54;;;;;;;;;;;;;;;18.29;72.11;100741.69;5034715;28;1620;-56
2021/10/16 10:13:21;;;;;;;;;;;;;;;18.26;72.61;100742.81;5034581;28;1573;-56
2021/10/16 10:15:48;;;;;;;;;;;;;;;18.28;72.78;100753.38;5035406;28;1902;-56
2021/10/16 10:20:59;;;;;;;;;;;;;;;18.27;72.38;100741.81;5026234;28;1596;-56
2021/10/16 10:23:27;;;;;;;;;;;;;;;18.29;72.34;100747.88;5034438;28;1762;-56
2021/10/16 10:26:09;;;;;;;;;;;;;;;18.28;72.75;100750.69;5034016;28;1471;-56
2021/10/16 10:28:56;;;;;;;;;;;;;;;18.31;72.75;100754.94;5031503;28;1867;-56
2021/10/16 10:31:41;;;;;;;;;;;;;;;18.29;72.84;100758.59;5031397;28;1676;-56
2021/10/16 10:34:11;;;;;;;;;;;;;;;18.27;72.42;100752.53;5034149;28;1767;-56
2021/10/16 10:36:43;;;;;;;;;;;;;;;18.26;72.43;100755.31;5033030;28;1632;-56
2021/10/16 10:39:36;;;;;;;;;;;;;;;18.29;72.75;100755.06;5031069;28;1556;-55
2021/10/16 10:42:03;;;;;;;;;;;;;;;18.23;72.77;100753.75;5033957;28;1637;-56
2021/10/16 10:44:39;;;;;;;;;;;;;;;18.24;72.16;100758.16;5033734;28;1451;-56
2021/10/16 10:47:20;;;;;;;;;;;;;;;18.22;72.31;100762.78;5034252;28;1029;-56
2021/10/16 10:49:47;;;;;;;;;;;;;;;18.23;72.88;100753.75;5033873;28;1504;-56
2021/10/16 10:52:14;;;;;;;;;;;;;;;18.22;72.42;100754.75;5033116;28;1763;-56
2021/10/16 10:55:04;;;;;;;;;;;;;;;18.24;72.82;100763.50;5033673;28;1906;-56
2021/10/16 10:57:58;;;;;;;;;;;;;;;18.28;72.09;100761.38;5030469;28;1658;-56
2021/10/16 11:00:39;;;;;;;;;;;;;;;18.26;72.81;100752.66;5005370;28;2829;-56
2021/10/16 11:03:20;;;;;;;;;;;;;;;18.26;72.54;100756.19;5033400;28;1790;-56
2021/10/16 11:05:47;;;;;;;;;;;;;;;18.26;72.43;100748.16;5032468;28;1627;-56
2021/10/16 11:08:15;;;;;;;;;;;;;;;18.24;72.46;100752.81;5033678;28;1628;-56
2021/10/16 11:10:42;;;;;;;;;;;;;;;18.28;72.27;100756.03;5029290;28;1632;-56
2021/10/16 11:13:11;;;;;;;;;;;;;;;18.24;72.41;100752.81;5033613;28;1702;-56
2021/10/16 11:15:39;;;;;;;;;;;;;;;18.22;73.19;100754.75;5033913;28;1964;-56
2021/10/16 11:18:10;;;;;;;;;;;;;;;18.24;72.38;100744.78;5033081;28;1504;-56
2021/10/16 11:20:36;;;;;;;;;;;;;;;18.22;72.93;100746.72;5033183;28;1577;-56
2021/10/16 11:23:03;;;;;;;;;;;;;;;18.26;72.85;100753.53;5033381;28;1445;-56
2021/10/16 11:25:30;;;;;;;;;;;;;;;18.21;72.23;100747.69;5033141;28;1616;-55
2021/10/16 11:28:01;;;;;;;;;;;;;;;18.25;72.28;100761.66;5034211;28;995;-56
2021/10/16 11:30:27;;;;;;;;;;;;;;;18.22;72.93;100749.41;5033007;28;1712;-56
2021/10/16 11:33:01;;;;;;;;;;;;;;;18.23;72.80;100759.13;5033219;28;1575;-56
2021/10/16 11:35:27;;;;;;;;;;;;;;;18.25;71.90;100762.50;5027828;28;1953;-56
2021/10/16 11:37:54;;;;;;;;;;;;;;;18.23;72.29;100763.63;5032977;28;1565;-56
2021/10/16 11:40:21;;;;;;;;;;;;;;;18.21;72.53;100757.56;5033779;28;1095;-56
2021/10/16 11:42:49;;;;;;;;;;;;;;;18.22;72.84;100757.44;5032934;28;1767;-56
2021/10/16 11:45:17;;;;;;;;;;;;;;;18.22;72.30;100756.56;5032789;28;1712;-56
2021/10/16 11:47:45;;;;;;;;;;;;;;;18.19;72.26;100752.34;5033279;28;1735;-56
2021/10/16 11:50:17;;;;;;;;;;;;;;;18.22;72.71;100762.78;5032931;28;1566;-55
2021/10/16 11:52:43;;;;;;;;;;;;;;;18.22;72.01;100770.81;5033752;28;1053;-56
2021/10/16 11:55:11;;;;;;;;;;;;;;;18.19;72.76;100752.34;5032902;28;1934;-56
2021/10/16 11:57:37;;;;;;;;;;;;;;;18.20;72.93;100770.06;5035517;28;1720;-56
2021/10/16 12:00:23;;;;;;;;;;;;;;;18.23;72.87;100761.78;5036845;28;1581;-56
2021/10/16 12:02:50;;;;;;;;;;;;;;;18.22;72.53;100759.25;5036990;28;1703;-55
2021/10/16 12:05:19;;;;;;;;;;;;;;;18.23;72.32;100767.16;5031687;28;1525;-56
2021/10/16 12:07:46;;;;;;;;;;;;;;;18.22;72.68;100760.13;5036998;28;1569;-56
2021/10/16 12:10:37;;;;;;;;;;;;;;;18.23;72.51;100771.66;5037469;28;983;-56
2021/10/16 12:13:07;;;;;;;;;;;;;;;18.21;72.34;100765.59;5033913;28;1553;-56
2021/10/16 12:15:41;;;;;;;;;;;;;;;18.22;72.52;100768.16;5037556;28;1997;-55
2021/10/16 12:18:16;;;;;;;;;;;;;;;18.25;72.42;100767.03;5036503;28;1569;-56
2021/10/16 12:20:45;;;;;;;;;;;;;;;18.22;72.37;100767.28;5036569;28;1325;-56
2021/10/16 12:23:12;;;;;;;;;;;;;;;18.20;72.71;100759.38;5036774;28;1581;-56
2021/10/16 12:25:50;;;;;;;;;;;;;;;18.21;72.61;100771.78;5036705;28;1577;-56
2021/10/16 12:28:16;;;;;;;;;;;;;;;18.20;72.86;100774.59;5036018;28;1593;-56
2021/10/16 12:30:59;;;;;;;;;;;;;;;18.19;72.51;100775.56;5037312;28;970;-56
2021/10/16 12:33:25;;;;;;;;;;;;;;;18.18;72.73;100772.03;5036225;28;1870;-56
2021/10/16 12:35:58;;;;;;;;;;;;;;;18.15;72.33;100772.31;5032514;28;1975;-56
2021/10/16 12:38:26;;;;;;;;;;;;;;;18.22;72.54;100784.19;5036442;28;1624;-56
2021/10/16 12:40:53;;;;;;;;;;;;;;;18.19;72.91;100781.78;5034356;28;1873;-56
2021/10/16 12:43:27;;;;;;;;;;;;;;;18.22;72.03;100792.22;5034703;28;1680;-56
2021/10/16 12:45:54;;;;;;;;;;;;;;;18.20;72.73;100788.81;5035254;28;974;-56
2021/10/16 12:48:25;;;;;;;;;;;;;;;18.18;72.55;100793.44;5035547;28;1496;-56
2021/10/16 12:50:52;;;;;;;;;;;;;;;18.17;72.50;100790.91;5035475;28;1620;-56
2021/10/16 12:53:21;;;;;;;;;;;;;;;18.21;72.06;100797.72;5036023;28;1455;-55
2021/10/16 12:55:47;;;;;;;;;;;;;;;18.17;72.61;100794.44;5035361;28;1939;-56
2021/10/16 12:58:15;;;;;;;;;;;;;;;18.20;72.46;100801.34;5035665;28;1597;-56
2021/10/16 13:00:42;;;;;;;;;;;;;;;18.16;72.80;100784.69;5035546;28;1078;-56